createdAt,value
2019-02-06T00:00:38.079Z,74.86
2019-02-06T00:03:05.784Z,74.86
2019-02-06T00:05:33.002Z,74.79
2019-02-06T00:08:00.267Z,74.95
2019-02-06T00:10:27.596Z,74.89
2019-02-06T00:12:54.836Z,74.75
2019-02-06T00:15:22.081Z,74.61
2019-02-06T00:17:49.308Z,74.55
2019-02-06T00:20:16.691Z,74.54
2019-02-06T00:22:44.357Z,74.82
2019-02-06T00:25:11.665Z,74.73
2019-02-06T00:27:38.920Z,75.01
2019-02-06T00:30:07.368Z,75.00
2019-02-06T00:32:34.619Z,74.84
2019-02-06T00:35:01.959Z,74.91
2019-02-06T00:37:29.230Z,74.83
2019-02-06T00:39:58.154Z,75.11
2019-02-06T00:42:25.400Z,75.33
2019-02-06T00:44:52.608Z,74.93
2019-02-06T00:47:19.861Z,75.14
2019-02-06T00:49:47.084Z,74.96
2019-02-06T00:52:14.326Z,75.00
2019-02-06T00:54:41.588Z,74.90
2019-02-06T00:57:08.909Z,74.68
2019-02-06T00:59:36.281Z,74.62
2019-02-06T01:02:03.890Z,74.46
2019-02-06T01:04:31.105Z,74.41
2019-02-06T01:06:58.325Z,74.33
2019-02-06T01:09:25.714Z,74.40
2019-02-06T01:11:52.934Z,74.30
2019-02-06T01:14:20.343Z,74.14
2019-02-06T01:16:47.696Z,74.24
2019-02-06T01:19:14.946Z,74.76
2019-02-06T01:21:42.182Z,74.84
2019-02-06T01:24:09.469Z,74.59
2019-02-06T01:26:36.682Z,74.50
2019-02-06T01:29:03.988Z,74.68
2019-02-06T01:31:31.485Z,74.66
2019-02-06T01:33:58.749Z,74.83
2019-02-06T01:36:26.241Z,74.63
2019-02-06T01:38:53.489Z,74.62
2019-02-06T01:41:20.697Z,74.86
2019-02-06T01:43:47.975Z,74.72
2019-02-06T01:46:15.197Z,74.66
2019-02-06T01:48:42.423Z,74.65
2019-02-06T01:51:09.788Z,74.77
2019-02-06T01:53:37.018Z,74.52
2019-02-06T01:56:04.633Z,74.42
2019-02-06T01:58:31.890Z,74.76
2019-02-06T02:00:59.305Z,74.27
2019-02-06T02:03:26.555Z,74.21
2019-02-06T02:06:01.894Z,74.39
2019-02-06T02:08:23.394Z,74.68
2019-02-06T02:10:50.645Z,74.53
2019-02-06T02:13:17.985Z,74.54
2019-02-06T02:15:45.300Z,74.33
2019-02-06T02:18:12.537Z,73.98
2019-02-06T02:20:39.881Z,74.05
2019-02-06T02:23:07.248Z,74.00
2019-02-06T02:25:34.500Z,74.04
2019-02-06T02:28:01.771Z,73.85
2019-02-06T02:30:36.028Z,74.02
2019-02-06T02:33:03.372Z,73.94
2019-02-06T02:35:30.699Z,73.89
2019-02-06T02:37:58.045Z,73.87
2019-02-06T02:40:25.352Z,74.10
2019-02-06T02:42:52.600Z,74.27
2019-02-06T02:45:19.900Z,73.65
2019-02-06T02:47:47.476Z,73.69
2019-02-06T02:50:14.760Z,73.84
2019-02-06T02:52:42.110Z,74.06
2019-02-06T02:55:09.777Z,73.69
2019-02-06T02:57:37.072Z,73.68
2019-02-06T03:00:08.293Z,73.68
2019-02-06T03:02:50.915Z,73.63
2019-02-06T03:05:23.718Z,73.75
2019-02-06T03:07:50.976Z,73.67
2019-02-06T03:10:18.514Z,73.60
2019-02-06T03:12:45.838Z,73.86
2019-02-06T03:15:13.162Z,74.28
2019-02-06T03:17:40.730Z,73.44
2019-02-06T03:20:09.442Z,73.89
2019-02-06T03:22:36.693Z,73.51
2019-02-06T03:25:04.977Z,73.14
2019-02-06T03:27:32.183Z,73.23
2019-02-06T03:29:59.447Z,73.08
2019-02-06T03:32:26.690Z,72.84
2019-02-06T03:34:54.259Z,73.03
2019-02-06T03:37:21.511Z,72.97
2019-02-06T03:39:48.792Z,73.08
2019-02-06T03:42:15.998Z,73.13
2019-02-06T03:44:43.235Z,73.03
2019-02-06T03:47:10.436Z,72.63
2019-02-06T03:49:37.753Z,72.76
2019-02-06T03:52:05.080Z,72.53
2019-02-06T03:54:32.557Z,72.67
2019-02-06T03:56:59.782Z,72.73
2019-02-06T03:59:27.061Z,72.74
2019-02-06T04:01:54.273Z,72.51
2019-02-06T04:04:21.542Z,72.88
2019-02-06T04:06:56.463Z,72.43
2019-02-06T04:09:17.884Z,72.40
2019-02-06T04:11:45.453Z,72.88
2019-02-06T04:14:12.664Z,72.37
2019-02-06T04:16:39.875Z,73.09
2019-02-06T04:19:07.135Z,72.17
2019-02-06T04:21:34.353Z,71.96
2019-02-06T04:24:01.567Z,72.16
2019-02-06T04:26:28.822Z,72.11
2019-02-06T04:28:56.250Z,72.99
2019-02-06T04:31:23.482Z,72.18
2019-02-06T04:33:50.755Z,71.53
2019-02-06T04:36:18.012Z,71.47
2019-02-06T04:38:45.232Z,71.58
2019-02-06T04:41:12.562Z,71.40
2019-02-06T04:43:39.896Z,71.92
2019-02-06T04:46:07.108Z,71.08
2019-02-06T04:48:34.688Z,71.42
2019-02-06T04:51:01.903Z,71.59
2019-02-06T04:53:29.155Z,71.79
2019-02-06T04:55:56.467Z,71.34
2019-02-06T04:58:23.691Z,71.26
2019-02-06T05:00:50.912Z,71.81
2019-02-06T05:03:18.157Z,72.58
2019-02-06T05:05:45.374Z,71.29
2019-02-06T05:08:12.698Z,71.55
2019-02-06T05:10:40.076Z,71.25
2019-02-06T05:13:07.332Z,71.24
2019-02-06T05:15:34.552Z,70.99
2019-02-06T05:18:01.816Z,70.96
2019-02-06T05:20:39.732Z,71.40
2019-02-06T05:23:08.210Z,71.12
2019-02-06T05:25:35.486Z,71.00
2019-02-06T05:28:02.760Z,71.26
2019-02-06T05:30:29.964Z,72.27
2019-02-06T05:32:57.210Z,71.16
2019-02-06T05:35:24.440Z,71.21
2019-02-06T05:37:51.660Z,71.09
2019-02-06T05:40:18.985Z,71.09
2019-02-06T05:42:46.611Z,71.07
2019-02-06T05:45:14.024Z,71.13
2019-02-06T05:47:41.247Z,71.27
2019-02-06T05:50:09.816Z,72.15
2019-02-06T05:52:37.055Z,71.75
2019-02-06T05:55:05.238Z,72.34
2019-02-06T05:57:32.563Z,72.13
2019-02-06T06:00:00.301Z,72.21
2019-02-06T06:02:27.534Z,73.07
2019-02-06T06:04:54.778Z,72.68
2019-02-06T06:07:22.009Z,73.00
2019-02-06T06:09:49.232Z,73.40
2019-02-06T06:12:16.510Z,73.78
2019-02-06T06:14:43.873Z,74.15
2019-02-06T06:17:11.064Z,73.87
2019-02-06T06:19:38.800Z,74.75
2019-02-06T06:22:06.136Z,74.35
2019-02-06T06:24:33.359Z,74.43
2019-02-06T06:27:00.631Z,74.80
2019-02-06T06:29:27.844Z,75.13
2019-02-06T06:31:55.056Z,75.48
2019-02-06T06:34:22.306Z,75.42
2019-02-06T06:36:49.705Z,75.35
2019-02-06T06:39:17.355Z,75.71
2019-02-06T06:41:44.740Z,75.73
2019-02-06T06:44:12.088Z,75.84
2019-02-06T06:46:39.396Z,75.94
2019-02-06T06:49:06.663Z,76.17
2019-02-06T06:51:33.873Z,76.25
2019-02-06T06:54:01.102Z,76.51
2019-02-06T06:56:28.380Z,77.22
2019-02-06T06:58:55.607Z,76.38
2019-02-06T07:01:22.849Z,76.71
2019-02-06T07:03:50.101Z,76.87
2019-02-06T07:06:17.445Z,77.22
2019-02-06T07:08:44.638Z,77.62
2019-02-06T07:11:11.877Z,77.57
2019-02-06T07:13:39.085Z,77.32
2019-02-06T07:16:06.622Z,77.33
2019-02-06T07:18:33.910Z,77.55
2019-02-06T07:21:01.749Z,77.52
2019-02-06T07:23:29.201Z,77.56
2019-02-06T07:25:56.478Z,77.37
2019-02-06T07:28:23.743Z,77.39
2019-02-06T07:30:50.964Z,77.28
2019-02-06T07:33:18.717Z,77.60
2019-02-06T07:35:46.121Z,78.15
2019-02-06T07:38:23.644Z,77.66
2019-02-06T07:40:42.526Z,77.97
2019-02-06T07:43:09.781Z,77.92
2019-02-06T07:45:37.038Z,78.29
2019-02-06T07:48:04.323Z,78.50
2019-02-06T07:50:32.636Z,78.70
2019-02-06T07:52:59.952Z,78.95
2019-02-06T07:55:27.298Z,78.76
2019-02-06T07:57:54.525Z,79.05
2019-02-06T08:00:21.885Z,78.90
2019-02-06T08:02:49.199Z,78.90
2019-02-06T08:05:17.618Z,79.31
2019-02-06T08:07:45.053Z,79.43
2019-02-06T08:10:15.908Z,79.47
2019-02-06T08:12:43.120Z,79.35
2019-02-06T08:15:11.691Z,79.49
2019-02-06T08:17:38.925Z,79.43
2019-02-06T08:20:07.397Z,79.33
2019-02-06T08:22:34.692Z,79.00
2019-02-06T08:25:01.949Z,78.95
2019-02-06T08:27:29.568Z,78.93
2019-02-06T08:29:56.855Z,78.90
2019-02-06T08:32:24.080Z,79.22
2019-02-06T08:34:51.289Z,79.03
2019-02-06T08:37:18.627Z,79.26
2019-02-06T08:39:45.920Z,79.09
2019-02-06T08:42:13.146Z,79.09
2019-02-06T08:44:40.800Z,79.13
2019-02-06T08:47:08.085Z,79.21
2019-02-06T08:49:35.327Z,79.16
2019-02-06T08:52:02.599Z,79.22
2019-02-06T08:54:29.834Z,79.45
2019-02-06T08:56:57.069Z,79.29
2019-02-06T08:59:24.363Z,79.16
2019-02-06T09:01:51.632Z,79.43
2019-02-06T09:04:19.079Z,79.53
2019-02-06T09:06:46.362Z,79.30
2019-02-06T09:09:13.567Z,79.52
2019-02-06T09:11:40.790Z,79.49
2019-02-06T09:14:08.048Z,79.55
2019-02-06T09:16:35.292Z,79.44
2019-02-06T09:19:02.530Z,79.54
2019-02-06T09:21:30.174Z,79.32
2019-02-06T09:23:57.394Z,79.33
2019-02-06T09:26:24.632Z,79.19
2019-02-06T09:28:52.003Z,79.46
2019-02-06T09:31:19.200Z,79.66
2019-02-06T09:33:46.451Z,80.12
2019-02-06T09:36:14.264Z,79.82
2019-02-06T09:38:41.557Z,79.93
2019-02-06T09:41:09.099Z,80.06
2019-02-06T09:43:36.392Z,79.86
2019-02-06T09:46:03.755Z,79.82
2019-02-06T09:48:31.008Z,79.46
2019-02-06T09:50:58.271Z,80.00
2019-02-06T09:53:25.520Z,80.04
2019-02-06T09:55:53.355Z,80.06
2019-02-06T09:58:20.718Z,80.18
2019-02-06T10:00:47.945Z,80.32
2019-02-06T10:03:15.185Z,80.15
2019-02-06T10:05:42.575Z,79.91
2019-02-06T10:08:09.799Z,79.91
2019-02-06T10:10:37.034Z,80.38
2019-02-06T10:13:04.715Z,80.36
2019-02-06T10:15:33.920Z,79.98
2019-02-06T10:18:01.733Z,79.88
2019-02-06T10:20:34.582Z,79.53
2019-02-06T10:23:02.131Z,79.54
2019-02-06T10:25:29.686Z,79.43
2019-02-06T10:27:56.974Z,79.48
2019-02-06T10:30:35.240Z,79.42
2019-02-06T10:33:02.684Z,79.55
2019-02-06T10:35:29.893Z,79.71
2019-02-06T10:37:57.234Z,79.76
2019-02-06T10:40:24.628Z,79.79
2019-02-06T10:42:51.862Z,79.91
2019-02-06T10:45:21.084Z,79.70
2019-02-06T10:47:48.904Z,80.00
2019-02-06T10:50:18.900Z,79.81
2019-02-06T10:52:48.350Z,79.47
2019-02-06T10:55:15.949Z,79.61
2019-02-06T10:57:43.149Z,79.59
2019-02-06T11:00:14.848Z,79.85
2019-02-06T11:02:42.235Z,79.90
2019-02-06T11:05:10.351Z,80.07
2019-02-06T11:07:37.873Z,79.94
2019-02-06T11:10:05.586Z,80.32
2019-02-06T11:12:32.848Z,79.67
2019-02-06T11:15:00.069Z,79.78
2019-02-06T11:17:27.475Z,79.88
2019-02-06T11:19:54.768Z,79.84
2019-02-06T11:22:21.997Z,79.80
2019-02-06T11:24:49.403Z,79.70
2019-02-06T11:27:16.725Z,79.68
2019-02-06T11:29:43.952Z,79.53
2019-02-06T11:32:11.174Z,79.59
2019-02-06T11:34:38.439Z,79.17
2019-02-06T11:37:05.792Z,79.31
2019-02-06T11:39:33.080Z,79.17
2019-02-06T11:42:00.639Z,79.93
2019-02-06T11:44:27.849Z,79.72
2019-02-06T11:46:55.248Z,79.88
2019-02-06T11:49:27.590Z,79.94
2019-02-06T11:51:54.851Z,80.05
2019-02-06T11:54:22.141Z,80.25
2019-02-06T11:56:49.395Z,80.37
2019-02-06T11:59:16.793Z,79.84
2019-02-06T12:01:48.825Z,80.41
2019-02-06T12:04:16.046Z,80.15
2019-02-06T12:06:43.246Z,80.38
2019-02-06T12:09:12.440Z,80.06
2019-02-06T12:11:39.696Z,80.40
2019-02-06T12:14:06.895Z,80.36
2019-02-06T12:16:34.352Z,80.52
2019-02-06T12:19:01.558Z,80.83
2019-02-06T12:21:28.770Z,80.73
2019-02-06T12:23:56.030Z,80.82
2019-02-06T12:26:23.271Z,80.67
2019-02-06T12:28:50.496Z,80.61
2019-02-06T12:31:20.754Z,80.57
2019-02-06T12:33:48.476Z,80.54
2019-02-06T12:36:16.034Z,80.63
2019-02-06T12:38:53.069Z,80.25
2019-02-06T12:41:12.606Z,80.48
2019-02-06T12:43:39.824Z,80.52
2019-02-06T12:46:07.115Z,79.86
2019-02-06T12:48:34.339Z,80.13
2019-02-06T12:51:01.591Z,79.43
2019-02-06T12:53:28.921Z,80.43
2019-02-06T12:55:56.643Z,80.33
2019-02-06T12:58:26.079Z,80.25
2019-02-06T13:00:53.270Z,80.42
2019-02-06T13:03:20.566Z,80.16
2019-02-06T13:05:48.824Z,80.09
2019-02-06T13:08:17.329Z,80.52
2019-02-06T13:10:44.796Z,80.38
2019-02-06T13:13:12.488Z,80.28
2019-02-06T13:15:39.731Z,80.39
2019-02-06T13:18:06.965Z,79.93
2019-02-06T13:20:34.731Z,80.18
2019-02-06T13:23:02.029Z,80.28
2019-02-06T13:25:29.255Z,80.28
2019-02-06T13:27:56.645Z,80.21
2019-02-06T13:30:28.779Z,80.04
2019-02-06T13:32:56.122Z,80.22
2019-02-06T13:35:23.457Z,80.71
2019-02-06T13:37:51.089Z,80.39
2019-02-06T13:40:20.018Z,80.84
2019-02-06T13:42:47.246Z,80.26
2019-02-06T13:45:17.640Z,80.32
2019-02-06T13:47:45.267Z,80.81
2019-02-06T13:50:21.714Z,80.63
2019-02-06T13:52:42.562Z,80.58
2019-02-06T13:55:10.266Z,80.72
2019-02-06T13:57:37.591Z,80.97
2019-02-06T14:00:10.637Z,81.09
2019-02-06T14:02:38.294Z,81.25
2019-02-06T14:05:05.703Z,80.92
2019-02-06T14:07:33.058Z,81.11
2019-02-06T14:10:00.374Z,80.97
2019-02-06T14:12:27.576Z,81.10
2019-02-06T14:14:55.591Z,81.17
2019-02-06T14:17:22.847Z,81.43
2019-02-06T14:19:50.096Z,81.38
2019-02-06T14:22:17.673Z,81.35
2019-02-06T14:24:55.256Z,81.15
2019-02-06T14:27:40.545Z,81.26
2019-02-06T14:31:02.043Z,81.33
2019-02-06T14:34:26.388Z,80.95
2019-02-06T14:37:38.913Z,81.07
2019-02-06T14:40:18.379Z,80.93
2019-02-06T14:43:11.242Z,81.16
2019-02-06T14:46:27.964Z,81.15
2019-02-06T14:49:19.275Z,81.42
2019-02-06T14:52:15.406Z,81.22
2019-02-06T14:55:23.282Z,81.11
2019-02-06T14:58:18.841Z,80.98
2019-02-06T15:01:15.601Z,80.84
2019-02-06T15:04:16.038Z,80.86
2019-02-06T15:07:14.139Z,80.85
2019-02-06T15:10:25.381Z,80.60
2019-02-06T15:13:30.547Z,80.50
2019-02-06T15:16:11.039Z,80.68
2019-02-06T15:19:35.427Z,80.70
2019-02-06T15:22:33.958Z,80.64
2019-02-06T15:25:42.245Z,80.29
2019-02-06T15:28:28.062Z,80.14
2019-02-06T15:31:32.907Z,80.38
2019-02-06T15:34:46.407Z,80.63
2019-02-06T15:37:21.425Z,80.42
2019-02-06T15:40:32.711Z,80.24
2019-02-06T15:43:26.178Z,79.91
2019-02-06T15:46:36.853Z,80.04
2019-02-06T15:49:29.784Z,79.69
2019-02-06T15:52:21.493Z,79.57
2019-02-06T15:55:25.068Z,79.59
2019-02-06T15:58:55.309Z,80.00
2019-02-06T16:02:10.888Z,80.21
2019-02-06T16:05:13.033Z,79.99
2019-02-06T16:08:20.304Z,79.82
2019-02-06T16:11:42.659Z,79.71
2019-02-06T16:14:24.643Z,80.08
2019-02-06T16:17:28.623Z,80.51
2019-02-06T16:20:09.202Z,80.56
2019-02-06T16:23:00.419Z,80.58
2019-02-06T16:26:00.852Z,80.84
2019-02-06T16:29:04.425Z,80.77
2019-02-06T16:32:14.632Z,80.90
2019-02-06T16:35:13.270Z,80.61
2019-02-06T16:38:08.938Z,80.71
2019-02-06T16:41:27.021Z,80.78
2019-02-06T16:44:29.888Z,80.87
2019-02-06T16:47:44.865Z,80.75
2019-02-06T16:50:50.479Z,80.68
2019-02-06T16:54:11.523Z,80.50
2019-02-06T16:56:46.647Z,80.67
2019-02-06T17:00:01.965Z,80.51
2019-02-06T17:03:22.829Z,80.97
2019-02-06T17:06:01.734Z,80.70
2019-02-06T17:09:25.062Z,80.59
2019-02-06T17:12:27.245Z,80.93
2019-02-06T17:15:27.866Z,80.85
2019-02-06T17:18:45.985Z,80.84
2019-02-06T17:21:43.427Z,80.40
2019-02-06T17:24:34.398Z,80.69
2019-02-06T17:27:17.483Z,80.81
2019-02-06T17:30:31.356Z,81.03
2019-02-06T17:33:55.618Z,81.02
2019-02-06T17:36:49.512Z,80.52
2019-02-06T17:39:43.175Z,80.29
2019-02-06T17:42:58.121Z,80.28
2019-02-06T17:45:52.673Z,80.50
2019-02-06T17:49:19.511Z,80.27
2019-02-06T17:52:37.963Z,80.11
2019-02-06T17:55:19.663Z,79.96
2019-02-06T17:57:48.175Z,79.87
2019-02-06T18:00:48.934Z,79.84
2019-02-06T18:03:16.357Z,79.79
2019-02-06T18:05:44.020Z,79.63
2019-02-06T18:08:11.424Z,79.66
2019-02-06T18:10:38.761Z,80.01
2019-02-06T18:13:06.262Z,79.94
2019-02-06T18:15:33.485Z,80.00
2019-02-06T18:18:03.573Z,79.90
2019-02-06T18:20:30.887Z,79.87
2019-02-06T18:22:58.460Z,79.93
2019-02-06T18:25:25.663Z,80.00
2019-02-06T18:27:52.891Z,79.94
2019-02-06T18:30:20.490Z,79.79
2019-02-06T18:32:47.751Z,79.61
2019-02-06T18:35:15.426Z,79.60
2019-02-06T18:37:43.410Z,79.18
2019-02-06T18:40:11.717Z,79.37
2019-02-06T18:42:39.013Z,79.32
2019-02-06T18:45:10.254Z,79.28
2019-02-06T18:47:37.483Z,79.26
2019-02-06T18:50:07.001Z,79.20
2019-02-06T18:52:34.241Z,79.13
2019-02-06T18:55:01.488Z,79.17
2019-02-06T18:57:28.819Z,79.45
2019-02-06T18:59:56.135Z,79.45
2019-02-06T19:02:23.488Z,79.19
2019-02-06T19:04:50.765Z,79.20
2019-02-06T19:07:18.539Z,79.18
2019-02-06T19:09:45.969Z,79.24
2019-02-06T19:12:13.175Z,79.30
2019-02-06T19:14:40.450Z,79.24
2019-02-06T19:17:07.696Z,79.18
2019-02-06T19:19:34.927Z,79.10
2019-02-06T19:22:02.203Z,78.96
2019-02-06T19:24:29.418Z,78.86
2019-02-06T19:26:56.648Z,78.84
2019-02-06T19:29:24.305Z,79.04
2019-02-06T19:31:51.533Z,78.85
2019-02-06T19:34:18.753Z,78.81
2019-02-06T19:36:46.003Z,78.84
2019-02-06T19:39:13.246Z,78.83
2019-02-06T19:41:40.498Z,78.77
2019-02-06T19:44:07.840Z,78.82
2019-02-06T19:46:35.068Z,78.88
2019-02-06T19:49:02.726Z,78.93
2019-02-06T19:51:29.952Z,78.86
2019-02-06T19:53:57.201Z,78.75
2019-02-06T19:56:24.495Z,78.77
2019-02-06T19:58:51.761Z,78.67
2019-02-06T20:01:19.773Z,78.62
2019-02-06T20:03:47.028Z,78.58
2019-02-06T20:06:30.664Z,78.61
2019-02-06T20:09:00.001Z,78.66
2019-02-06T20:11:27.215Z,78.58
2019-02-06T20:13:54.452Z,78.56
2019-02-06T20:16:21.747Z,78.62
2019-02-06T20:18:48.972Z,78.54
2019-02-06T20:21:16.285Z,78.51
2019-02-06T20:23:43.511Z,78.48
2019-02-06T20:26:10.789Z,78.54
2019-02-06T20:28:38.321Z,78.48
2019-02-06T20:31:05.544Z,78.56
2019-02-06T20:33:32.798Z,78.54
2019-02-06T20:36:00.077Z,78.50
2019-02-06T20:38:27.300Z,78.42
2019-02-06T20:40:54.584Z,78.28
2019-02-06T20:43:22.522Z,78.34
2019-02-06T20:45:49.993Z,78.30
2019-02-06T20:48:17.544Z,78.29
2019-02-06T20:50:44.857Z,78.31
2019-02-06T20:53:12.286Z,78.21
2019-02-06T20:55:39.612Z,78.23
2019-02-06T20:58:06.844Z,78.22
2019-02-06T21:00:35.939Z,78.12
2019-02-06T21:03:03.849Z,78.12
2019-02-06T21:05:31.086Z,78.12
2019-02-06T21:07:58.744Z,78.04
2019-02-06T21:10:27.456Z,78.04
2019-02-06T21:12:54.890Z,78.10
2019-02-06T21:15:22.102Z,78.07
2019-02-06T21:17:49.570Z,78.23
2019-02-06T21:20:18.153Z,78.23
2019-02-06T21:22:45.475Z,78.18
2019-02-06T21:25:14.573Z,78.16
2019-02-06T21:27:41.993Z,78.13
2019-02-06T21:30:15.165Z,78.17
2019-02-06T21:32:42.400Z,78.22
2019-02-06T21:35:09.903Z,78.19
2019-02-06T21:37:37.153Z,78.14
2019-02-06T21:40:06.869Z,78.13
2019-02-06T21:42:35.773Z,78.22
2019-02-06T21:45:04.023Z,78.11
2019-02-06T21:47:31.238Z,78.17
2019-02-06T21:49:58.504Z,78.04
2019-02-06T21:52:25.720Z,78.20
2019-02-06T21:54:53.011Z,78.37
2019-02-06T21:57:20.333Z,78.67
2019-02-06T21:59:47.861Z,78.28
2019-02-06T22:02:15.122Z,78.26
2019-02-06T22:04:42.357Z,78.14
2019-02-06T22:07:09.569Z,78.11
2019-02-06T22:09:36.876Z,78.05
2019-02-06T22:12:04.296Z,77.82
2019-02-06T22:14:31.514Z,78.04
2019-02-06T22:17:00.620Z,77.97
2019-02-06T22:19:27.949Z,77.94
2019-02-06T22:21:55.629Z,77.83
2019-02-06T22:24:22.882Z,77.74
2019-02-06T22:26:50.104Z,77.61
2019-02-06T22:29:17.386Z,77.72
2019-02-06T22:31:44.641Z,77.71
2019-02-06T22:34:12.198Z,77.72
2019-02-06T22:36:39.420Z,77.69
2019-02-06T22:39:10.439Z,77.66
2019-02-06T22:41:37.683Z,77.60
2019-02-06T22:44:06.860Z,77.59
2019-02-06T22:46:34.176Z,77.55
2019-02-06T22:49:01.428Z,77.53
2019-02-06T22:51:29.177Z,77.35
2019-02-06T22:53:56.429Z,77.35
2019-02-06T22:56:23.686Z,77.50
2019-02-06T22:58:50.902Z,77.68
2019-02-06T23:01:28.789Z,77.69
2019-02-06T23:03:56.110Z,77.95
2019-02-06T23:06:23.554Z,77.95
2019-02-06T23:08:50.803Z,77.94
2019-02-06T23:11:18.267Z,78.05
2019-02-06T23:13:45.528Z,78.34
2019-02-06T23:16:12.840Z,78.14
2019-02-06T23:18:40.161Z,78.14
2019-02-06T23:21:07.434Z,78.27
2019-02-06T23:23:34.944Z,78.28
2019-02-06T23:26:02.148Z,78.31
2019-02-06T23:28:29.432Z,78.18
2019-02-06T23:30:56.662Z,78.64
2019-02-06T23:33:23.936Z,78.48
2019-02-06T23:35:51.203Z,78.46
2019-02-06T23:38:18.444Z,78.46
2019-02-06T23:40:46.176Z,78.57
2019-02-06T23:43:13.453Z,78.39
2019-02-06T23:45:40.784Z,78.39
2019-02-06T23:48:08.121Z,78.37
2019-02-06T23:50:35.366Z,78.35
2019-02-06T23:53:02.705Z,78.34
2019-02-06T23:55:29.915Z,78.28
2019-02-06T23:57:57.686Z,78.21
